createdAt,value
2023-02-11T00:01:31.249Z,102475.53
2023-02-11T00:03:59.806Z,102480.34
2023-02-11T00:06:29.511Z,102472.09
2023-02-11T00:08:56.995Z,102470.06
2023-02-11T00:11:26.520Z,102463.53
2023-02-11T00:13:53.477Z,102463.47
2023-02-11T00:16:21.345Z,102462.59
2023-02-11T00:18:50.242Z,102468.44
2023-02-11T00:21:24.453Z,102459.94
2023-02-11T00:23:52.156Z,102468.59
2023-02-11T00:26:25.691Z,102470.94
2023-02-11T00:28:53.366Z,102473.38
2023-02-11T00:31:23.034Z,102461.22
2023-02-11T00:33:50.348Z,102455.56
2023-02-11T00:36:24.544Z,102451.03
2023-02-11T00:38:53.966Z,102453.38
2023-02-11T00:41:22.188Z,102466.28
2023-02-11T00:43:49.766Z,102456.72
2023-02-11T00:46:19.820Z,102456.78
2023-02-11T00:48:46.934Z,102447.44
2023-02-11T00:51:13.913Z,102453.31
2023-02-11T00:53:41.074Z,102445.38
2023-02-11T00:56:08.827Z,102444.34
2023-02-11T00:58:37.208Z,102439.69
2023-02-11T01:01:04.799Z,102450.19
2023-02-11T01:03:32.018Z,102440.66
2023-02-11T01:05:58.914Z,102442.09
2023-02-11T01:08:29.216Z,102428.31
2023-02-11T01:11:02.497Z,102404.84
2023-02-11T01:13:32.792Z,102416.94
2023-02-11T01:16:00.217Z,102421.56
2023-02-11T01:18:27.953Z,102414.72
2023-02-11T01:20:55.366Z,102422.69
2023-02-11T01:23:22.454Z,102410.31
2023-02-11T01:25:50.656Z,102407.88
2023-02-11T01:28:20.768Z,102396.97
2023-02-11T01:30:48.389Z,102413.88
2023-02-11T01:33:15.574Z,102410.41
2023-02-11T01:35:43.315Z,102408.75
2023-02-11T01:38:18.474Z,102423.25
2023-02-11T01:40:58.635Z,102417.88
2023-02-11T01:43:28.329Z,102418.50
2023-02-11T01:46:31.066Z,102425.38
2023-02-11T01:49:06.509Z,102429.34
2023-02-11T01:51:42.253Z,102424.97
2023-02-11T01:54:31.090Z,102419.94
2023-02-11T01:57:18.827Z,102423.59
2023-02-11T01:59:58.192Z,102419.94
2023-02-11T02:02:39.861Z,102425.13
2023-02-11T02:05:30.968Z,102418.50
2023-02-11T02:08:19.577Z,102415.38
2023-02-11T02:10:49.694Z,102416.97
2023-02-11T02:13:17.380Z,102413.59
2023-02-11T02:15:55.461Z,102394.97
2023-02-11T02:19:00.946Z,102384.78
2023-02-11T02:21:49.338Z,102375.31
2023-02-11T02:24:36.476Z,102373.69
2023-02-11T02:28:07.252Z,102360.63
2023-02-11T02:31:03.562Z,102347.28
2023-02-11T02:33:56.301Z,102344.25
2023-02-11T02:36:41.821Z,102338.97
2023-02-11T02:39:27.084Z,102347.66
2023-02-11T02:41:56.696Z,102352.84
2023-02-11T02:44:24.234Z,102347.50
2023-02-11T02:46:51.624Z,102344.00
2023-02-11T02:49:18.677Z,102338.13
2023-02-11T02:52:30.505Z,102337.19
2023-02-11T02:55:32.505Z,102329.34
2023-02-11T02:58:14.796Z,102341.38
2023-02-11T03:01:20.499Z,102337.19
2023-02-11T03:03:53.385Z,102334.94
2023-02-11T03:07:01.966Z,102337.19
2023-02-11T03:09:40.866Z,102338.84
2023-02-11T03:12:08.895Z,102337.25
2023-02-11T03:14:36.836Z,102330.47
2023-02-11T03:17:06.324Z,102335.56
2023-02-11T03:19:46.666Z,102329.13
2023-02-11T03:22:42.523Z,102318.00
2023-02-11T03:25:09.988Z,102316.69
2023-02-11T03:28:05.822Z,102328.69
2023-02-11T03:30:45.767Z,102322.16
2023-02-11T03:33:57.838Z,102325.44
2023-02-11T03:36:33.808Z,102334.91
2023-02-11T03:39:03.578Z,102321.28
2023-02-11T03:41:31.480Z,102322.00
2023-02-11T03:43:59.770Z,102342.84
2023-02-11T03:46:35.800Z,102352.84
2023-02-11T03:49:12.186Z,102339.06
2023-02-11T03:51:40.411Z,102340.91
2023-02-11T03:54:13.683Z,102345.97
2023-02-11T03:56:49.923Z,102335.06
2023-02-11T03:59:16.976Z,102331.78
2023-02-11T04:01:44.023Z,102337.13
2023-02-11T04:04:11.453Z,102327.13
2023-02-11T04:06:38.658Z,102320.41
2023-02-11T04:09:05.838Z,102323.72
2023-02-11T04:11:32.857Z,102320.13
2023-02-11T04:13:59.926Z,102318.97
2023-02-11T04:16:27.179Z,102307.94
2023-02-11T04:18:54.136Z,102316.81
2023-02-11T04:21:21.038Z,102315.75
2023-02-11T04:23:47.903Z,102320.28
2023-02-11T04:26:14.911Z,102321.84
2023-02-11T04:28:41.798Z,102321.47
2023-02-11T04:31:10.697Z,102324.19
2023-02-11T04:33:37.704Z,102321.44
2023-02-11T04:36:04.780Z,102316.41
2023-02-11T04:38:32.293Z,102309.78
2023-02-11T04:41:00.536Z,102291.03
2023-02-11T04:43:27.457Z,102281.88
2023-02-11T04:45:58.758Z,102282.47
2023-02-11T04:48:26.282Z,102278.00
2023-02-11T04:50:53.331Z,102293.00
2023-02-11T04:53:20.452Z,102286.72
2023-02-11T04:55:50.912Z,102277.41
2023-02-11T04:58:20.120Z,102269.34
2023-02-11T05:00:47.399Z,102261.66
2023-02-11T05:03:14.597Z,102262.66
2023-02-11T05:05:42.662Z,102256.03
2023-02-11T05:08:12.777Z,102259.59
2023-02-11T05:10:39.789Z,102251.06
2023-02-11T05:13:06.715Z,102246.81
2023-02-11T05:15:33.639Z,102248.38
2023-02-11T05:18:00.503Z,102247.41
2023-02-11T05:20:27.429Z,102241.00
2023-02-11T05:22:54.370Z,102241.91
2023-02-11T05:25:21.385Z,102241.47
2023-02-11T05:27:48.414Z,102240.09
2023-02-11T05:30:15.345Z,102248.13
2023-02-11T05:32:42.286Z,102266.59
2023-02-11T05:35:09.549Z,102258.53
2023-02-11T05:37:36.770Z,102259.19
2023-02-11T05:40:04.972Z,102266.41
2023-02-11T05:42:32.030Z,102268.34
2023-02-11T05:44:58.916Z,102275.19
2023-02-11T05:47:25.894Z,102287.78
2023-02-11T05:49:55.908Z,102282.88
2023-02-11T05:52:24.271Z,102276.41
2023-02-11T05:54:51.565Z,102293.47
2023-02-11T05:57:18.553Z,102300.16
2023-02-11T05:59:45.528Z,102298.56
2023-02-11T06:02:12.571Z,102295.44
2023-02-11T06:04:39.530Z,102293.69
2023-02-11T06:07:06.493Z,102291.78
2023-02-11T06:09:33.413Z,102288.31
2023-02-11T06:12:00.305Z,102291.88
2023-02-11T06:14:27.385Z,102290.81
2023-02-11T06:16:54.355Z,102292.91
2023-02-11T06:19:21.320Z,102298.75
2023-02-11T06:21:48.248Z,102297.25
2023-02-11T06:24:17.416Z,102286.94
2023-02-11T06:26:46.282Z,102283.47
2023-02-11T06:29:13.941Z,102286.81
2023-02-11T06:31:41.462Z,102285.06
2023-02-11T06:34:10.372Z,102278.38
2023-02-11T06:36:39.891Z,102272.28
2023-02-11T06:39:08.205Z,102264.53
2023-02-11T06:41:35.122Z,102266.25
2023-02-11T06:44:02.279Z,102257.66
2023-02-11T06:46:29.371Z,102260.84
2023-02-11T06:48:56.543Z,102270.16
2023-02-11T06:51:23.632Z,102267.56
2023-02-11T06:53:50.591Z,102257.50
2023-02-11T06:56:23.011Z,102258.19
2023-02-11T06:58:56.338Z,102263.69
2023-02-11T07:01:25.336Z,102268.66
2023-02-11T07:03:53.592Z,102278.16
2023-02-11T07:06:27.739Z,102269.44
2023-02-11T07:08:56.223Z,102268.38
2023-02-11T07:11:27.477Z,102275.50
2023-02-11T07:14:00.803Z,102296.44
2023-02-11T07:16:27.992Z,102296.59
2023-02-11T07:18:55.018Z,102298.41
2023-02-11T07:21:24.378Z,102306.78
2023-02-11T07:23:52.247Z,102306.50
2023-02-11T07:26:25.906Z,102309.06
2023-02-11T07:28:53.952Z,102315.59
2023-02-11T07:31:27.925Z,102304.59
2023-02-11T07:33:59.818Z,102304.50
2023-02-11T07:36:28.599Z,102305.25
2023-02-11T07:38:55.650Z,102307.94
2023-02-11T07:41:25.169Z,102302.03
2023-02-11T07:43:54.057Z,102298.44
2023-02-11T07:46:25.553Z,102295.28
2023-02-11T07:48:53.383Z,102287.34
2023-02-11T07:51:23.583Z,102288.81
2023-02-11T07:53:50.861Z,102280.25
2023-02-11T07:56:19.917Z,102277.25
2023-02-11T07:58:47.157Z,102273.72
2023-02-11T08:01:18.669Z,102279.91
2023-02-11T08:03:45.777Z,102282.50
2023-02-11T08:06:16.483Z,102269.28
2023-02-11T08:08:44.490Z,102262.13
2023-02-11T08:11:21.826Z,102264.31
2023-02-11T08:13:49.360Z,102268.03
2023-02-11T08:16:22.549Z,102269.66
2023-02-11T08:18:51.054Z,102260.44
2023-02-11T08:21:18.900Z,102259.91
2023-02-11T08:23:46.916Z,102252.09
2023-02-11T08:26:23.794Z,102252.19
2023-02-11T08:28:54.259Z,102252.34
2023-02-11T08:31:25.234Z,102246.44
2023-02-11T08:33:54.619Z,102257.03
2023-02-11T08:36:25.151Z,102245.50
2023-02-11T08:38:57.159Z,102243.66
2023-02-11T08:41:32.644Z,102249.06
2023-02-11T08:43:59.784Z,102254.50
2023-02-11T08:46:27.988Z,102261.25
2023-02-11T08:48:55.852Z,102266.81
2023-02-11T08:51:27.557Z,102272.69
2023-02-11T08:53:56.282Z,102256.50
2023-02-11T08:56:23.820Z,102256.94
2023-02-11T08:58:51.904Z,102253.75
2023-02-11T09:01:24.274Z,102245.16
2023-02-11T09:03:51.950Z,102240.13
2023-02-11T09:06:19.890Z,102233.97
2023-02-11T09:08:49.906Z,102232.91
2023-02-11T09:11:22.577Z,102232.03
2023-02-11T09:13:50.972Z,102228.50
2023-02-11T09:16:28.032Z,102233.19
2023-02-11T09:18:58.264Z,102239.69
2023-02-11T09:21:25.736Z,102239.38
2023-02-11T09:23:53.384Z,102228.47
2023-02-11T09:26:27.383Z,102222.50
2023-02-11T09:28:54.679Z,102218.63
2023-02-11T09:31:24.975Z,102216.03
2023-02-11T09:33:56.912Z,102206.50
2023-02-11T09:36:33.713Z,102207.78
2023-02-11T09:39:02.296Z,102211.59
2023-02-11T09:41:39.719Z,102210.47
2023-02-11T09:44:18.521Z,102205.69
2023-02-11T09:47:01.024Z,102202.59
2023-02-11T09:49:51.914Z,102209.19
2023-02-11T09:52:24.635Z,102209.72
2023-02-11T09:55:01.254Z,102212.00
2023-02-11T09:57:36.569Z,102206.13
2023-02-11T10:00:24.304Z,102202.47
2023-02-11T10:03:42.593Z,102205.41
2023-02-11T10:06:37.002Z,102191.72
2023-02-11T10:09:33.051Z,102184.16
2023-02-11T10:12:15.042Z,102183.47
2023-02-11T10:14:50.620Z,102178.47
2023-02-11T10:17:20.241Z,102181.88
2023-02-11T10:19:59.098Z,102177.47
2023-02-11T10:22:36.871Z,102177.16
2023-02-11T10:25:40.382Z,102171.94
2023-02-11T10:28:24.653Z,102172.31
2023-02-11T10:31:03.986Z,102172.38
2023-02-11T10:34:05.721Z,102177.78
2023-02-11T10:36:40.212Z,102177.34
2023-02-11T10:39:14.209Z,102182.44
2023-02-11T10:41:56.677Z,102173.78
2023-02-11T10:44:44.072Z,102168.69
2023-02-11T10:47:22.914Z,102162.84
2023-02-11T10:49:50.094Z,102165.81
2023-02-11T10:52:20.168Z,102167.19
2023-02-11T10:55:05.090Z,102168.47
2023-02-11T10:57:59.533Z,102145.50
2023-02-11T11:00:41.522Z,102148.53
2023-02-11T11:03:46.950Z,102146.25
2023-02-11T11:06:14.014Z,102151.94
2023-02-11T11:08:49.420Z,102159.97
2023-02-11T11:11:22.986Z,102156.72
2023-02-11T11:13:53.164Z,102163.19
2023-02-11T11:16:27.300Z,102154.38
2023-02-11T11:19:23.542Z,102158.19
2023-02-11T11:21:56.064Z,102155.81
2023-02-11T11:24:40.612Z,102160.72
2023-02-11T11:27:21.846Z,102158.59
2023-02-11T11:29:55.139Z,102157.50
2023-02-11T11:32:32.492Z,102153.25
2023-02-11T11:35:05.989Z,102153.91
2023-02-11T11:37:39.025Z,102150.38
2023-02-11T11:40:08.993Z,102156.50
2023-02-11T11:42:39.189Z,102165.69
2023-02-11T11:45:25.791Z,102162.88
2023-02-11T11:48:46.892Z,102151.66
2023-02-11T11:51:14.051Z,102159.16
2023-02-11T11:54:12.681Z,102148.56
2023-02-11T11:56:54.358Z,102155.19
2023-02-11T11:59:22.566Z,102153.25
2023-02-11T12:02:06.862Z,102161.94
2023-02-11T12:05:10.584Z,102148.31
2023-02-11T12:08:20.653Z,102150.06
2023-02-11T12:11:05.806Z,102147.88
2023-02-11T12:14:06.493Z,102141.75
2023-02-11T12:17:03.573Z,102142.63
2023-02-11T12:19:48.729Z,102144.59
2023-02-11T12:22:44.392Z,102130.56
2023-02-11T12:25:54.280Z,102138.88
2023-02-11T12:28:53.897Z,102122.06
2023-02-11T12:31:53.876Z,102122.66
2023-02-11T12:34:58.378Z,102121.31
2023-02-11T12:37:41.328Z,102121.41
2023-02-11T12:40:21.854Z,102129.88
2023-02-11T12:43:16.528Z,102121.28
2023-02-11T12:46:24.329Z,102119.16
2023-02-11T12:49:24.562Z,102108.19
2023-02-11T12:52:22.695Z,102110.59
2023-02-11T12:55:02.711Z,102107.00
2023-02-11T12:57:33.558Z,102103.91
2023-02-11T13:00:00.381Z,102108.75
2023-02-11T13:02:34.298Z,102103.38
2023-02-11T13:05:29.743Z,102099.44
2023-02-11T13:08:42.941Z,102102.81
2023-02-11T13:11:41.124Z,102100.19
2023-02-11T13:14:32.703Z,102095.44
2023-02-11T13:17:00.396Z,102089.31
2023-02-11T13:19:52.938Z,102091.50
2023-02-11T13:22:28.539Z,102085.16
2023-02-11T13:25:31.356Z,102091.94
2023-02-11T13:28:28.549Z,102099.75
2023-02-11T13:31:03.459Z,102103.59
2023-02-11T13:33:35.521Z,102102.47
2023-02-11T13:36:04.613Z,102095.28
2023-02-11T13:38:33.176Z,102091.56
2023-02-11T13:41:26.470Z,102089.72
2023-02-11T13:44:22.680Z,102091.44
2023-02-11T13:47:02.192Z,102091.03
2023-02-11T13:49:33.721Z,102098.06
2023-02-11T13:52:02.691Z,102094.03
2023-02-11T13:54:39.162Z,102098.16
2023-02-11T13:57:26.341Z,102097.28
2023-02-11T14:00:10.273Z,102104.50
2023-02-11T14:02:56.643Z,102095.53
2023-02-11T14:05:50.951Z,102097.25
2023-02-11T14:08:44.494Z,102096.06
2023-02-11T14:11:43.593Z,102094.81
2023-02-11T14:14:27.255Z,102099.13
2023-02-11T14:17:00.787Z,102092.66
2023-02-11T14:19:45.904Z,102088.53
2023-02-11T14:22:31.807Z,102097.22
2023-02-11T14:25:05.288Z,102099.38
2023-02-11T14:27:52.221Z,102096.47
2023-02-11T14:30:44.323Z,102097.97
2023-02-11T14:33:32.642Z,102100.34
2023-02-11T14:36:28.385Z,102095.25
2023-02-11T14:39:32.699Z,102101.78
2023-02-11T14:42:02.864Z,102096.22
2023-02-11T14:44:33.205Z,102105.03
2023-02-11T14:47:00.584Z,102110.97
2023-02-11T14:49:30.565Z,102123.72
2023-02-11T14:52:25.922Z,102135.25
2023-02-11T14:55:17.893Z,102167.44
2023-02-11T14:57:45.746Z,102168.72
2023-02-11T15:00:20.878Z,102173.16
2023-02-11T15:02:48.791Z,102176.16
2023-02-11T15:05:29.030Z,102184.81
2023-02-11T15:08:02.922Z,102188.72
2023-02-11T15:10:43.469Z,102184.34
2023-02-11T15:13:20.182Z,102199.28
2023-02-11T15:15:55.229Z,102204.88
2023-02-11T15:18:33.591Z,102209.22
2023-02-11T15:21:01.009Z,102211.25
2023-02-11T15:23:30.044Z,102224.94
2023-02-11T15:25:57.107Z,102242.53
2023-02-11T15:28:34.260Z,102249.38
2023-02-11T15:31:14.656Z,102241.28
2023-02-11T15:33:41.819Z,102237.09
2023-02-11T15:36:13.768Z,102231.63
2023-02-11T15:38:41.039Z,102235.16
2023-02-11T15:41:35.993Z,102236.47
2023-02-11T15:44:02.888Z,102237.16
2023-02-11T15:46:39.522Z,102242.81
2023-02-11T15:49:08.513Z,102234.97
2023-02-11T15:51:37.451Z,102235.66
2023-02-11T15:54:16.738Z,102247.41
2023-02-11T15:56:47.519Z,102245.91
2023-02-11T15:59:23.876Z,102252.84
2023-02-11T16:01:50.886Z,102256.84
2023-02-11T16:04:21.990Z,102247.66
2023-02-11T16:06:51.072Z,102247.47
2023-02-11T16:09:30.558Z,102254.84
2023-02-11T16:12:04.817Z,102260.59
2023-02-11T16:14:42.218Z,102262.59
2023-02-11T16:17:22.337Z,102269.91
2023-02-11T16:19:51.946Z,102267.88
2023-02-11T16:22:30.101Z,102265.72
2023-02-11T16:25:00.576Z,102266.81
2023-02-11T16:27:38.181Z,102273.94
2023-02-11T16:30:07.192Z,102281.88
2023-02-11T16:32:35.032Z,102274.22
2023-02-11T16:35:02.143Z,102279.22
2023-02-11T16:37:29.061Z,102280.72
2023-02-11T16:39:58.030Z,102289.91
2023-02-11T16:42:25.249Z,102291.09
2023-02-11T16:44:52.322Z,102287.09
2023-02-11T16:47:27.900Z,102275.00
2023-02-11T16:49:56.727Z,102277.28
2023-02-11T16:52:24.459Z,102274.53
2023-02-11T16:54:52.085Z,102277.28
2023-02-11T16:57:26.933Z,102280.72
2023-02-11T16:59:55.094Z,102272.47
2023-02-11T17:02:36.289Z,102272.09
2023-02-11T17:05:11.971Z,102266.50
2023-02-11T17:07:39.109Z,102260.97
2023-02-11T17:10:15.121Z,102256.38
2023-02-11T17:12:42.026Z,102268.41
2023-02-11T17:15:09.754Z,102268.03
2023-02-11T17:17:36.782Z,102264.69
2023-02-11T17:20:04.120Z,102260.44
2023-02-11T17:22:31.028Z,102260.25
2023-02-11T17:24:58.765Z,102267.34
2023-02-11T17:27:25.789Z,102273.59
2023-02-11T17:29:52.843Z,102268.88
2023-02-11T17:32:19.884Z,102275.13
2023-02-11T17:34:46.958Z,102287.03
2023-02-11T17:37:13.956Z,102289.44
2023-02-11T17:39:41.122Z,102293.59
2023-02-11T17:42:08.692Z,102296.28
2023-02-11T17:44:35.728Z,102315.47
2023-02-11T17:47:02.764Z,102319.06
2023-02-11T17:49:30.213Z,102321.72
2023-02-11T17:51:57.162Z,102319.34
2023-02-11T17:54:25.004Z,102331.34
2023-02-11T17:56:55.169Z,102330.09
2023-02-11T17:59:25.207Z,102329.66
2023-02-11T18:01:52.154Z,102321.22
2023-02-11T18:04:20.305Z,102318.16
2023-02-11T18:06:47.642Z,102311.81
2023-02-11T18:09:14.756Z,102315.41
2023-02-11T18:11:42.101Z,102315.72
2023-02-11T18:14:10.775Z,102321.56
2023-02-11T18:16:39.793Z,102328.69
2023-02-11T18:19:07.672Z,102331.09
2023-02-11T18:21:35.315Z,102329.34
2023-02-11T18:24:06.396Z,102332.59
2023-02-11T18:26:34.465Z,102335.69
2023-02-11T18:29:02.006Z,102356.88
2023-02-11T18:31:29.567Z,102360.50
2023-02-11T18:33:56.482Z,102358.56
2023-02-11T18:36:23.802Z,102352.53
2023-02-11T18:38:52.641Z,102341.59
2023-02-11T18:41:20.531Z,102336.41
2023-02-11T18:43:47.467Z,102330.19
2023-02-11T18:46:16.052Z,102325.91
2023-02-11T18:48:44.817Z,102327.44
2023-02-11T18:51:15.836Z,102333.25
2023-02-11T18:53:43.348Z,102330.03
2023-02-11T18:56:15.252Z,102328.16
2023-02-11T18:58:42.412Z,102337.19
2023-02-11T19:01:25.945Z,102339.19
2023-02-11T19:03:54.832Z,102363.41
2023-02-11T19:06:28.595Z,102353.94
2023-02-11T19:08:59.957Z,102340.81
2023-02-11T19:11:47.226Z,102355.47
2023-02-11T19:14:25.718Z,102347.69
2023-02-11T19:16:56.755Z,102345.56
2023-02-11T19:19:25.739Z,102345.22
2023-02-11T19:21:52.835Z,102336.03
2023-02-11T19:24:20.288Z,102334.44
2023-02-11T19:26:49.569Z,102330.66
2023-02-11T19:29:17.281Z,102323.97
2023-02-11T19:31:44.988Z,102318.81
2023-02-11T19:34:14.163Z,102337.34
2023-02-11T19:36:41.564Z,102336.28
2023-02-11T19:39:09.246Z,102342.22
2023-02-11T19:41:37.033Z,102336.28
2023-02-11T19:44:05.990Z,102331.63
2023-02-11T19:46:36.963Z,102334.59
2023-02-11T19:49:05.367Z,102328.94
2023-02-11T19:51:33.905Z,102330.69
2023-02-11T19:54:02.328Z,102346.31
2023-02-11T19:56:29.342Z,102355.06
2023-02-11T19:58:56.779Z,102353.53
2023-02-11T20:01:26.121Z,102354.91
2023-02-11T20:03:57.038Z,102354.47
2023-02-11T20:06:30.538Z,102369.03
2023-02-11T20:09:04.227Z,102370.06
2023-02-11T20:11:31.902Z,102369.59
2023-02-11T20:14:00.192Z,102373.34
2023-02-11T20:16:45.076Z,102371.03
2023-02-11T20:19:21.447Z,102370.19
2023-02-11T20:21:52.468Z,102371.22
2023-02-11T20:24:20.535Z,102367.75
2023-02-11T20:26:48.781Z,102371.75
2023-02-11T20:29:18.990Z,102358.94
2023-02-11T20:31:46.368Z,102369.03
2023-02-11T20:34:13.542Z,102368.69
2023-02-11T20:36:40.751Z,102363.41
2023-02-11T20:39:08.356Z,102360.16
2023-02-11T20:41:39.909Z,102362.22
2023-02-11T20:44:09.925Z,102366.50
2023-02-11T20:46:40.315Z,102358.09
2023-02-11T20:49:10.322Z,102366.75
2023-02-11T20:51:37.576Z,102363.84
2023-02-11T20:54:06.227Z,102371.09
2023-02-11T20:56:36.677Z,102366.00
2023-02-11T20:59:05.769Z,102371.94
2023-02-11T21:01:43.208Z,102370.72
2023-02-11T21:04:20.279Z,102372.31
2023-02-11T21:06:55.313Z,102372.34
2023-02-11T21:09:26.441Z,102367.47
2023-02-11T21:11:54.785Z,102373.44
2023-02-11T21:14:24.814Z,102368.50
2023-02-11T21:16:52.637Z,102358.34
2023-02-11T21:19:20.316Z,102353.47
2023-02-11T21:21:47.768Z,102350.22
2023-02-11T21:24:17.300Z,102353.59
2023-02-11T21:26:44.254Z,102350.03
2023-02-11T21:29:11.891Z,102358.41
2023-02-11T21:31:39.609Z,102351.91
2023-02-11T21:34:07.234Z,102355.00
2023-02-11T21:36:34.260Z,102354.50
2023-02-11T21:39:01.926Z,102360.22
2023-02-11T21:41:29.119Z,102355.94
2023-02-11T21:43:56.477Z,102365.09
2023-02-11T21:46:23.749Z,102362.38
2023-02-11T21:48:50.981Z,102358.06
2023-02-11T21:51:23.743Z,102360.81
2023-02-11T21:54:02.291Z,102360.38
2023-02-11T21:56:31.368Z,102360.69
2023-02-11T21:59:00.019Z,102356.84
2023-02-11T22:01:33.351Z,102366.44
2023-02-11T22:04:00.562Z,102351.25
2023-02-11T22:06:31.093Z,102363.78
2023-02-11T22:09:01.816Z,102363.28
2023-02-11T22:11:28.781Z,102364.53
2023-02-11T22:13:57.755Z,102365.19
2023-02-11T22:16:29.812Z,102370.84
2023-02-11T22:18:58.922Z,102383.88
2023-02-11T22:21:27.700Z,102381.13
2023-02-11T22:23:55.957Z,102392.22
2023-02-11T22:26:26.326Z,102397.38
2023-02-11T22:28:54.863Z,102396.59
2023-02-11T22:31:29.048Z,102408.59
2023-02-11T22:33:57.297Z,102407.75
2023-02-11T22:36:30.766Z,102416.25
2023-02-11T22:39:02.097Z,102413.34
2023-02-11T22:41:29.598Z,102404.03
2023-02-11T22:43:56.706Z,102398.16
2023-02-11T22:46:23.702Z,102401.06
2023-02-11T22:48:51.264Z,102400.06
2023-02-11T22:51:25.547Z,102399.66
2023-02-11T22:53:56.612Z,102400.09
2023-02-11T22:56:24.625Z,102400.31
2023-02-11T22:58:53.194Z,102410.53
2023-02-11T23:01:20.768Z,102396.97
2023-02-11T23:03:47.715Z,102406.31
2023-02-11T23:06:14.827Z,102404.56
2023-02-11T23:08:45.398Z,102405.25
2023-02-11T23:11:17.118Z,102406.28
2023-02-11T23:13:45.534Z,102416.69
2023-02-11T23:16:17.371Z,102410.16
2023-02-11T23:18:46.163Z,102406.72
2023-02-11T23:21:24.215Z,102402.84
2023-02-11T23:24:13.234Z,102393.84
2023-02-11T23:26:42.206Z,102403.88
2023-02-11T23:29:10.789Z,102400.53
2023-02-11T23:31:40.729Z,102401.28
2023-02-11T23:34:08.278Z,102397.41
2023-02-11T23:36:35.877Z,102397.59
2023-02-11T23:39:03.430Z,102400.81
2023-02-11T23:41:30.399Z,102408.56
2023-02-11T23:43:58.097Z,102409.81
2023-02-11T23:46:27.127Z,102412.19
2023-02-11T23:48:54.346Z,102410.63
2023-02-11T23:51:21.704Z,102415.69
2023-02-11T23:53:49.654Z,102417.34
2023-02-11T23:56:20.974Z,102417.22
2023-02-11T23:58:50.156Z,102415.75
